Time;durP1;ratioP1;P1;durP2;ratioP2;P2;SDS_P1;SDS_P2;PMS_P1;PMS_P2;Temp;Humidity;BMP_temperature;BMP_pressure;BME280_temperature;BME280_humidity;BME280_pressure;Samples;Min_cycle;Max_cycle;Signal;HPM_P1;HPM_P2
2023/12/05 00:00:12;;;;;;;17.80;8.10;;;;;;;-1.18;81.82;100310.16;6394030;27;20089;-75
2023/12/05 00:03:13;;;;;;;19.70;9.35;;;;;;;-1.13;82.60;100305.00;6401012;27;20042;-75
2023/12/05 00:06:14;;;;;;;17.55;9.15;;;;;;;-1.10;82.75;100315.22;6399555;27;20057;-75
2023/12/05 00:09:15;;;;;;;15.10;8.05;;;;;;;-1.12;82.27;100311.84;6399584;27;20054;-75
2023/12/05 00:12:16;;;;;;;12.77;7.45;;;;;;;-1.12;82.56;100319.53;6399633;27;20494;-75
2023/12/05 00:15:17;;;;;;;25.17;8.45;;;;;;;-1.06;81.79;100325.44;6399508;27;20057;-77
2023/12/05 00:18:18;;;;;;;16.75;8.48;;;;;;;-1.05;82.44;100321.16;6400545;27;20387;-77
2023/12/05 00:21:18;;;;;;;17.38;8.27;;;;;;;-1.01;82.11;100330.50;6393906;27;20043;-75
2023/12/05 00:24:19;;;;;;;14.25;8.50;;;;;;;-1.02;81.87;100321.97;6375067;27;20056;-76
2023/12/05 00:27:20;;;;;;;14.00;8.32;;;;;;;-1.04;81.63;100325.41;6372203;27;20055;-77
2023/12/05 00:30:21;;;;;;;12.68;6.68;;;;;;;-1.02;82.09;100321.13;6374387;27;20058;-77
2023/12/05 00:33:22;;;;;;;15.65;8.32;;;;;;;-0.98;81.79;100320.25;6374691;27;20047;-77
2023/12/05 00:36:26;;;;;;;15.15;8.25;;;;;;;-1.02;82.48;100310.88;6373348;27;20066;-75
2023/12/05 00:39:29;;;;;;;18.05;7.95;;;;;;;-1.04;82.08;100315.19;6373280;27;20039;-75
2023/12/05 00:42:30;;;;;;;15.05;8.07;;;;;;;-1.04;82.44;100315.19;6374300;27;20391;-75
2023/12/05 00:45:31;;;;;;;14.52;7.45;;;;;;;-1.08;81.33;100328.88;6374346;27;20043;-76
2023/12/05 00:48:32;;;;;;;14.65;8.38;;;;;;;-0.99;82.04;100339.03;6374114;27;20418;-77
2023/12/05 00:51:33;;;;;;;19.02;8.63;;;;;;;-1.00;81.59;100339.06;6373036;27;20054;-77
2023/12/05 00:54:34;;;;;;;16.33;8.05;;;;;;;-0.99;82.37;100336.47;6372785;27;20179;-77
2023/12/05 00:57:35;;;;;;;24.48;8.00;;;;;;;-0.97;81.68;100339.84;6371859;27;20552;-77
2023/12/05 01:00:38;;;;;;;12.88;8.07;;;;;;;-0.95;81.77;100332.16;6373377;27;20055;-77
2023/12/05 01:03:39;;;;;;;14.35;8.15;;;;;;;-1.03;81.29;100321.97;6371057;27;20047;-76
2023/12/05 01:06:43;;;;;;;10.57;7.72;;;;;;;-0.96;81.78;100310.00;6372133;27;20055;-75
2023/12/05 01:09:44;;;;;;;11.50;6.68;;;;;;;-0.98;82.16;100306.59;6373582;27;20487;-75
2023/12/05 01:12:45;;;;;;;11.98;6.43;;;;;;;-1.16;81.90;100292.25;6372187;27;20055;-75
2023/12/05 01:15:49;;;;;;;15.02;8.00;;;;;;;-1.06;82.59;100304.09;6373763;27;20047;-75
2023/12/05 01:18:50;;;;;;;14.45;7.80;;;;;;;-1.04;82.68;100292.97;6373392;27;20043;-75
2023/12/05 01:21:50;;;;;;;12.07;7.43;;;;;;;-1.06;82.06;100281.88;6373229;27;20410;-75
2023/12/05 01:24:55;;;;;;;15.10;7.28;;;;;;;-1.11;82.66;100288.78;6373348;27;20080;-75
2023/12/05 01:27:58;;;;;;;16.73;7.85;;;;;;;-1.12;82.04;100281.94;6373837;27;20067;-75
2023/12/05 01:30:59;;;;;;;10.95;6.78;;;;;;;-1.16;81.98;100262.34;6374175;27;20669;-75
2023/12/05 01:34:02;;;;;;;11.05;6.90;;;;;;;-1.29;82.71;100251.38;6372512;27;20047;-75
2023/12/05 01:37:03;;;;;;;14.35;7.85;;;;;;;-1.12;82.77;100251.22;6372415;27;20047;-75
2023/12/05 01:40:06;;;;;;;15.00;6.75;;;;;;;-1.20;82.01;100232.53;6373568;27;20398;-76
2023/12/05 01:43:08;;;;;;;11.50;6.35;;;;;;;-1.16;82.58;100239.31;6372544;27;20043;-75
2023/12/05 01:46:09;;;;;;;12.35;7.32;;;;;;;-1.08;82.51;100239.22;6373718;27;20055;-75
2023/12/05 01:49:10;;;;;;;12.63;5.95;;;;;;;-1.12;81.99;100232.44;6373453;27;20047;-75
2023/12/05 01:52:12;;;;;;;10.95;5.80;;;;;;;-1.11;81.77;100240.13;6372770;27;20047;-77
2023/12/05 01:55:14;;;;;;;10.32;5.88;;;;;;;-1.05;82.03;100237.50;6372106;27;20055;-77
2023/12/05 01:58:16;;;;;;;12.23;5.93;;;;;;;-0.98;82.78;100222.06;6372139;27;20047;-77
2023/12/05 02:01:17;;;;;;;12.43;6.20;;;;;;;-1.00;82.00;100222.06;6372453;27;20047;-75
2023/12/05 02:04:19;;;;;;;13.57;6.20;;;;;;;-0.97;81.43;100224.59;6372367;27;20051;-75
2023/12/05 02:07:21;;;;;;;8.98;5.70;;;;;;;-0.95;82.03;100216.91;6372481;27;20062;-76
2023/12/05 02:10:23;;;;;;;11.07;6.87;;;;;;;-1.00;82.23;100218.69;6373426;27;20080;-75
2023/12/05 02:13:24;;;;;;;11.50;6.50;;;;;;;-0.86;81.66;100227.06;6370852;27;20111;-76
2023/12/05 02:16:44;;;;;;;10.40;5.75;;;;;;;-0.81;81.51;100227.84;6371844;27;20043;-75
2023/12/05 02:19:52;;;;;;;15.13;6.75;;;;;;;-0.86;81.94;100220.22;6373317;27;20051;-75
2023/12/05 02:23:05;;;;;;;12.02;6.10;;;;;;;-0.85;81.00;100214.19;6371771;27;20400;-75
2023/12/05 02:26:37;;;;;;;17.15;7.18;;;;;;;-0.87;81.24;100207.41;6371748;27;20063;-75
2023/12/05 02:29:51;;;;;;;13.52;5.75;;;;;;;-0.88;81.00;100209.13;6330409;28;20047;-75
2023/12/05 02:32:52;;;;;;;10.80;6.55;;;;;;;-0.87;81.79;100207.41;6346074;28;20495;-75
2023/12/05 02:36:03;;;;;;;13.18;7.35;;;;;;;-0.88;80.67;100198.03;6346615;28;20058;-75
2023/12/05 02:39:30;;;;;;;13.55;6.07;;;;;;;-0.81;81.38;100205.63;6347273;28;20494;-75
2023/12/05 02:42:32;;;;;;;13.68;6.70;;;;;;;-0.86;80.95;100193.75;6346503;28;20050;-75
2023/12/05 02:45:35;;;;;;;11.30;6.40;;;;;;;-0.82;81.53;100190.28;6345992;28;20524;-75
2023/12/05 02:48:36;;;;;;;15.07;7.10;;;;;;;-0.79;81.14;100205.59;6345607;28;20075;-75
2023/12/05 02:51:39;;;;;;;13.93;6.53;;;;;;;-0.83;80.73;100198.81;6346234;28;20051;-75
2023/12/05 02:54:40;;;;;;;15.38;7.30;;;;;;;-0.83;81.27;100201.38;6346849;28;20052;-77
2023/12/05 02:57:44;;;;;;;14.75;5.45;;;;;;;-0.84;81.24;100192.00;6346999;28;20040;-77
2023/12/05 03:00:45;;;;;;;14.70;8.20;;;;;;;-0.84;81.06;100192.00;6347431;28;20062;-75
2023/12/05 03:03:48;;;;;;;10.35;6.03;;;;;;;-0.82;80.71;100195.41;6346169;28;20052;-75
2023/12/05 03:06:49;;;;;;;13.02;7.07;;;;;;;-0.86;81.08;100184.34;6346945;28;20411;-77
2023/12/05 03:09:51;;;;;;;9.25;5.70;;;;;;;-0.79;80.69;100187.66;6346042;28;20131;-77
2023/12/05 03:12:52;;;;;;;13.40;5.93;;;;;;;-0.84;81.55;100186.88;6345843;28;20495;-77
2023/12/05 03:15:55;;;;;;;15.15;6.10;;;;;;;-0.92;80.59;100181.00;6347252;28;20471;-75
2023/12/05 03:18:56;;;;;;;12.45;6.55;;;;;;;-0.78;81.00;100185.94;6346692;28;20418;-75
2023/12/05 03:21:57;;;;;;;13.85;6.72;;;;;;;-0.73;81.43;100186.75;6346961;28;20059;-76
2023/12/05 03:24:58;;;;;;;10.52;5.65;;;;;;;-0.80;81.63;100183.44;6345844;28;20056;-75
2023/12/05 03:27:59;;;;;;;8.90;5.05;;;;;;;-0.79;80.80;100185.09;6346151;28;20059;-75
2023/12/05 03:31:02;;;;;;;10.80;6.45;;;;;;;-0.75;81.51;100185.91;6350513;28;20051;-75
2023/12/05 03:34:06;;;;;;;11.40;6.60;;;;;;;-0.71;81.06;100183.28;6351654;28;20050;-75
2023/12/05 03:37:07;;;;;;;11.85;6.40;;;;;;;-0.72;81.02;100185.88;6351461;28;20051;-75
2023/12/05 03:40:11;;;;;;;9.95;5.32;;;;;;;-0.74;80.57;100187.59;6350234;28;20043;-75
2023/12/05 03:43:13;;;;;;;12.73;6.60;;;;;;;-0.68;81.27;100196.09;6350104;28;20047;-75
2023/12/05 03:46:13;;;;;;;11.52;6.30;;;;;;;-0.62;81.05;100192.56;6349962;28;20379;-75
2023/12/05 03:49:14;;;;;;;9.75;5.47;;;;;;;-0.65;81.09;100178.09;6350090;28;20050;-75
2023/12/05 03:52:18;;;;;;;13.90;6.55;;;;;;;-0.69;80.66;100181.56;6350899;28;20059;-75
2023/12/05 03:55:19;;;;;;;16.85;7.10;;;;;;;-0.66;81.18;100173.84;6349584;28;20156;-75
2023/12/05 03:58:20;;;;;;;12.52;5.82;;;;;;;-0.72;80.93;100167.94;6349714;28;20043;-77
2023/12/05 04:01:23;;;;;;;11.32;6.40;;;;;;;-0.77;81.28;100175.69;6351133;28;20048;-77
2023/12/05 04:04:24;;;;;;;12.70;5.82;;;;;;;-0.64;81.22;100179.81;6350633;28;20584;-77
2023/12/05 04:07:27;;;;;;;13.68;7.03;;;;;;;-0.68;81.32;100170.47;6350593;28;20055;-75
2023/12/05 04:10:28;;;;;;;16.27;9.40;;;;;;;-0.68;80.93;100172.16;6350905;28;20054;-75
2023/12/05 04:13:29;;;;;;;16.35;8.75;;;;;;;-0.70;80.66;100166.19;6349203;28;20077;-75
2023/12/05 04:16:32;;;;;;;14.23;6.72;;;;;;;-0.63;80.67;100158.41;6350310;28;20052;-75
2023/12/05 04:19:33;;;;;;;10.93;6.60;;;;;;;-0.65;81.02;100155.03;6348431;28;20130;-75
2023/12/05 04:22:34;;;;;;;14.88;7.28;;;;;;;-0.69;80.26;100138.00;6348446;28;20502;-75
2023/12/05 04:25:35;;;;;;;12.40;7.28;;;;;;;-0.56;80.72;100155.78;6349743;28;20052;-75
2023/12/05 04:28:38;;;;;;;10.95;6.20;;;;;;;-0.53;80.52;100151.47;6350432;28;20051;-75
2023/12/05 04:31:39;;;;;;;14.55;6.50;;;;;;;-0.65;79.94;100147.34;6348590;28;20054;-75
2023/12/05 04:34:44;;;;;;;9.32;6.20;;;;;;;-0.58;81.10;100145.53;6348798;28;20403;-75
2023/12/05 04:37:45;;;;;;;11.40;5.50;;;;;;;-0.59;80.87;100138.72;6350014;28;20531;-75
2023/12/05 04:40:46;;;;;;;10.05;5.75;;;;;;;-0.56;79.89;100151.47;6347337;28;20521;-75
2023/12/05 04:43:47;;;;;;;9.88;6.18;;;;;;;-0.52;81.02;100148.00;6350020;28;20048;-76
2023/12/05 04:46:48;;;;;;;10.93;5.18;;;;;;;-0.51;80.54;100149.72;6349508;28;20089;-77
2023/12/05 04:49:51;;;;;;;10.45;6.18;;;;;;;-0.57;80.41;100129.31;6349567;28;20535;-77
2023/12/05 04:52:52;;;;;;;13.02;5.93;;;;;;;-0.49;80.68;100137.72;6349266;28;20556;-77
2023/12/05 04:55:53;;;;;;;10.25;6.25;;;;;;;-0.52;80.19;100136.91;6348247;28;20051;-77
2023/12/05 04:58:54;;;;;;;11.52;6.03;;;;;;;-0.53;80.20;100136.06;6347813;28;20051;-77
2023/12/05 05:01:57;;;;;;;11.27;5.65;;;;;;;-0.49;80.86;100135.16;6347960;28;20353;-77
2023/12/05 05:04:58;;;;;;;11.98;5.15;;;;;;;-0.51;81.20;100129.22;6347894;28;20055;-77
2023/12/05 05:07:59;;;;;;;11.55;6.28;;;;;;;-0.45;80.41;100138.53;6348250;28;20055;-77
2023/12/05 05:11:00;;;;;;;24.65;10.30;;;;;;;-0.39;80.85;100141.00;6347837;28;20052;-77
2023/12/05 05:14:01;;;;;;;18.20;9.18;;;;;;;-0.44;80.07;100127.41;6347944;28;20062;-75
2023/12/05 05:17:07;;;;;;;19.17;8.35;;;;;;;-0.38;80.00;100145.25;6348976;28;20396;-76
2023/12/05 05:20:08;;;;;;;12.55;6.75;;;;;;;-0.34;80.32;100146.91;6347627;28;20051;-77
2023/12/05 05:23:11;;;;;;;15.35;6.85;;;;;;;-0.30;80.17;100157.97;6347669;28;20051;-77
2023/12/05 05:26:12;;;;;;;13.68;6.75;;;;;;;-0.29;80.24;100144.25;6347370;28;20487;-77
2023/12/05 05:29:13;;;;;;;11.40;6.65;;;;;;;-0.25;80.54;100140.78;6348723;28;20082;-77
2023/12/05 05:32:13;;;;;;;10.40;5.70;;;;;;;-0.28;80.31;100146.81;6347368;28;20411;-77
2023/12/05 05:35:16;;;;;;;12.68;6.82;;;;;;;-0.36;80.55;100143.50;6348526;28;20084;-77
2023/12/05 05:38:18;;;;;;;13.98;6.78;;;;;;;-0.27;80.43;100145.09;6348446;28;20091;-77
2023/12/05 05:41:19;;;;;;;13.43;7.18;;;;;;;-0.22;79.98;100143.31;6347511;28;20047;-77
2023/12/05 05:44:20;;;;;;;16.25;7.22;;;;;;;-0.20;79.42;100149.28;6348646;28;20055;-77
2023/12/05 05:47:24;;;;;;;11.70;5.80;;;;;;;-0.15;79.58;100151.75;6346988;27;20055;-77
2023/12/05 05:50:24;;;;;;;9.80;5.65;;;;;;;-0.15;79.67;100155.16;6398179;27;20050;-75
2023/12/05 05:53:26;;;;;;;10.38;5.80;;;;;;;-0.12;79.52;100150.00;6397641;27;20058;-76
2023/12/05 05:56:27;;;;;;;17.50;8.25;;;;;;;-0.09;79.38;100157.63;6398230;27;20061;-77
2023/12/05 05:59:28;;;;;;;16.40;7.97;;;;;;;-0.11;78.88;100154.25;6397728;27;20557;-77
2023/12/05 06:02:29;;;;;;;12.52;5.85;;;;;;;-0.09;78.96;100156.78;6373923;27;20080;-77
2023/12/05 06:05:30;;;;;;;10.55;6.63;;;;;;;-0.17;79.42;100133.81;6371829;27;20051;-77
2023/12/05 06:08:33;;;;;;;15.85;8.40;;;;;;;-0.33;79.82;100134.91;6373425;27;20100;-77
2023/12/05 06:11:34;;;;;;;14.43;6.93;;;;;;;-0.18;79.65;100144.13;6373599;27;20071;-75
2023/12/05 06:14:35;;;;;;;11.20;6.90;;;;;;;-0.14;79.45;100130.38;6372246;27;20050;-75
2023/12/05 06:17:36;;;;;;;13.13;7.20;;;;;;;-0.09;79.04;100134.53;6372993;27;20452;-77
2023/12/05 06:20:36;;;;;;;10.02;6.32;;;;;;;-0.22;79.52;100131.34;6372273;27;20056;-77
2023/12/05 06:23:38;;;;;;;12.63;6.97;;;;;;;-0.27;78.90;100134.84;6372324;27;20142;-77
2023/12/05 06:26:39;;;;;;;12.57;7.10;;;;;;;-0.18;79.26;100132.13;6372044;27;20100;-77
2023/12/05 06:29:40;;;;;;;11.40;6.93;;;;;;;-0.28;79.27;100133.16;6371792;27;20043;-77
2023/12/05 06:32:41;;;;;;;16.90;7.63;;;;;;;-0.16;79.05;100127.84;6372941;27;20142;-77
2023/12/05 06:35:42;;;;;;;14.57;7.70;;;;;;;-0.15;79.07;100124.38;6371583;28;20051;-77
2023/12/05 06:38:42;;;;;;;9.80;5.63;;;;;;;-0.04;78.74;100122.50;6370864;28;20054;-77
2023/12/05 06:41:43;;;;;;;15.23;7.97;;;;;;;0.06;79.22;100135.16;6372217;27;20047;-77
2023/12/05 06:44:44;;;;;;;17.27;8.35;;;;;;;0.04;78.54;100129.22;6371021;28;20055;-77
2023/12/05 06:47:45;;;;;;;17.63;9.02;;;;;;;0.04;79.12;100118.94;6371965;27;20054;-77
2023/12/05 06:50:48;;;;;;;14.90;7.00;;;;;;;0.08;78.68;100133.41;6361231;28;20051;-77
2023/12/05 06:53:49;;;;;;;13.45;7.25;;;;;;;0.14;78.69;100118.75;6346311;28;20419;-77
2023/12/05 06:56:53;;;;;;;20.88;7.10;;;;;;;0.05;78.19;100118.09;6348207;27;20130;-77
2023/12/05 06:59:54;;;;;;;12.50;6.90;;;;;;;0.17;78.12;100123.03;6396143;27;20043;-77
2023/12/05 07:02:58;;;;;;;14.35;6.28;;;;;;;0.19;77.46;100124.69;6398205;27;20054;-77
2023/12/05 07:06:01;;;;;;;20.73;10.38;;;;;;;0.23;77.77;100115.22;6402646;27;21069;-77
2023/12/05 07:09:04;;;;;;;18.67;8.65;;;;;;;0.25;78.04;100117.72;6401541;27;20053;-75
2023/12/05 07:12:05;;;;;;;12.95;7.15;;;;;;;0.31;77.01;100112.50;6402388;27;20046;-75
2023/12/05 07:15:08;;;;;;;14.75;7.10;;;;;;;0.32;76.91;100107.34;6402455;27;20046;-75
2023/12/05 07:18:12;;;;;;;14.80;7.82;;;;;;;0.37;77.22;100105.53;6400964;27;20043;-75
2023/12/05 07:21:12;;;;;;;12.13;6.45;;;;;;;0.44;77.06;100103.69;6402553;27;20046;-75
2023/12/05 07:24:16;;;;;;;15.52;7.50;;;;;;;0.32;76.76;100101.38;6400939;27;20486;-77
2023/12/05 07:27:17;;;;;;;11.10;5.70;;;;;;;0.38;77.63;100098.69;6402125;27;20051;-77
2023/12/05 07:30:17;;;;;;;9.80;6.50;;;;;;;0.40;77.52;100095.19;6401041;27;20459;-77
2023/12/05 07:33:19;;;;;;;13.00;7.05;;;;;;;0.43;77.28;100103.72;6402072;27;20051;-77
2023/12/05 07:36:22;;;;;;;19.60;8.55;;;;;;;0.40;77.43;100100.34;6378422;27;20039;-75
2023/12/05 07:39:28;;;;;;;14.02;7.55;;;;;;;0.47;76.90;100098.50;6365210;27;20043;-77
2023/12/05 07:42:29;;;;;;;16.05;7.78;;;;;;;0.51;77.04;100101.84;6390627;27;20082;-75
2023/12/05 07:45:32;;;;;;;37.75;16.60;;;;;;;0.56;76.85;100105.19;6372395;27;20047;-77
2023/12/05 07:48:33;;;;;;;24.05;13.48;;;;;;;0.54;76.53;100096.69;6372608;27;20108;-75
2023/12/05 07:51:35;;;;;;;40.00;20.10;;;;;;;0.64;76.47;100098.19;6373946;27;20051;-75
2023/12/05 07:54:36;;;;;;;24.15;10.95;;;;;;;0.69;76.06;100098.09;6376977;27;20380;-75
2023/12/05 07:57:37;;;;;;;14.50;7.90;;;;;;;0.82;75.20;100103.84;6375611;27;20521;-75
2023/12/05 08:00:39;;;;;;;16.00;8.63;;;;;;;0.91;74.87;100091.66;6375517;27;20047;-78
2023/12/05 08:03:40;;;;;;;;;;;;;;;0.97;74.96;100103.53;6377343;27;20502;-76
2023/12/05 08:06:41;;;;;;;27.33;13.73;;;;;;;0.92;74.14;100111.31;6395573;27;19926;-77
2023/12/05 08:09:44;;;;;;;27.35;13.27;;;;;;;1.04;74.74;100106.81;6400304;27;20495;-77
2023/12/05 08:12:45;;;;;;;23.30;11.93;;;;;;;0.98;74.78;100105.22;6382178;27;20479;-75
2023/12/05 08:15:46;;;;;;;123.93;50.00;;;;;;;0.94;74.39;100114.69;6380333;27;20047;-76
2023/12/05 08:18:47;;;;;;;92.20;39.45;;;;;;;1.03;74.46;100113.69;6375855;27;20121;-76
2023/12/05 08:21:48;;;;;;;47.83;20.85;;;;;;;1.18;74.24;100121.06;6374073;27;20411;-75
2023/12/05 08:24:50;;;;;;;51.67;23.05;;;;;;;1.14;74.24;100122.00;6365933;27;20040;-75
2023/12/05 08:27:51;;;;;;;38.00;17.65;;;;;;;1.28;74.41;100132.00;6368779;27;20118;-75
2023/12/05 08:30:52;;;;;;;29.67;12.13;;;;;;;1.31;73.94;100129.34;6353565;27;20053;-75
2023/12/05 08:33:56;;;;;;;34.97;12.60;;;;;;;1.32;73.99;100133.63;6369045;27;20484;-75
2023/12/05 08:36:57;;;;;;;22.55;10.82;;;;;;;1.37;74.27;100128.38;6365249;27;20072;-75
2023/12/05 08:39:57;;;;;;;42.28;20.02;;;;;;;1.34;73.86;100133.56;6374593;27;20133;-75
2023/12/05 08:42:58;;;;;;;31.83;16.95;;;;;;;1.39;73.52;100124.03;6354115;27;20054;-75
2023/12/05 08:46:01;;;;;;;16.13;7.85;;;;;;;1.47;73.95;100129.03;6348816;28;20052;-75
2023/12/05 08:49:04;;;;;;;12.07;6.72;;;;;;;1.56;73.76;100124.50;6347976;28;20089;-75
2023/12/05 08:52:08;;;;;;;11.40;6.80;;;;;;;1.60;73.56;100117.56;6348597;28;20491;-77
2023/12/05 08:55:09;;;;;;;18.23;9.57;;;;;;;1.70;73.06;100118.19;6358662;27;20196;-77
2023/12/05 08:58:13;;;;;;;28.70;12.50;;;;;;;1.75;73.66;100116.34;6372956;27;20494;-77
2023/12/05 09:01:16;;;;;;;31.65;12.18;;;;;;;1.83;72.30;100117.00;6374053;27;20051;-77
2023/12/05 09:04:17;;;;;;;24.42;10.98;;;;;;;1.80;72.46;100106.81;6380426;27;20138;-77
2023/12/05 09:07:18;;;;;;;24.70;11.80;;;;;;;1.71;72.54;100107.88;6398552;27;20391;-77
2023/12/05 09:10:19;;;;;;;27.13;12.50;;;;;;;1.65;72.76;100104.59;6398736;27;20088;-77
2023/12/05 09:13:20;;;;;;;26.90;12.18;;;;;;;1.77;72.84;100096.56;6367917;27;20131;-77
2023/12/05 09:16:21;;;;;;;22.05;10.68;;;;;;;1.72;72.61;100090.72;6359832;27;20426;-77
2023/12/05 09:19:22;;;;;;;23.70;10.23;;;;;;;1.93;72.57;100090.16;6378145;27;20106;-77
2023/12/05 09:22:23;;;;;;;16.08;8.23;;;;;;;1.97;71.62;100081.50;6362801;27;20444;-77
2023/12/05 09:25:24;;;;;;;18.95;7.35;;;;;;;1.92;71.11;100085.09;6361109;27;20039;-75
2023/12/05 09:28:25;;;;;;;11.30;6.03;;;;;;;1.96;71.46;100082.38;6365870;27;20043;-75
2023/12/05 09:31:26;;;;;;;26.77;12.88;;;;;;;2.08;71.54;100078.66;6378447;27;20096;-75
2023/12/05 09:34:27;;;;;;;32.90;18.08;;;;;;;2.16;71.61;100070.72;6367509;27;20127;-75
2023/12/05 09:37:28;;;;;;;45.67;20.67;;;;;;;2.29;71.21;100077.25;6374151;27;20047;-77
2023/12/05 09:40:31;;;;;;;33.58;17.13;;;;;;;2.44;70.80;100077.72;6387800;27;20047;-75
2023/12/05 09:43:36;;;;;;;18.08;11.18;;;;;;;2.39;70.57;100070.97;6394300;27;20046;-75
2023/12/05 09:46:38;;;;;;;17.92;9.07;;;;;;;2.53;70.47;100064.59;6360118;27;20572;-75
2023/12/05 09:49:40;;;;;;;;;;;;;;;2.67;70.14;100069.38;6371869;27;20051;-75
2023/12/05 09:52:44;;;;;;;18.70;6.97;;;;;;;2.65;69.92;100066.81;6397079;27;21496;-75
2023/12/05 09:55:45;;;;;;;18.75;6.93;;;;;;;2.62;70.43;100051.47;6364899;27;20523;-75
2023/12/05 09:58:47;;;;;;;17.35;7.35;;;;;;;2.74;69.89;100055.41;6372134;27;20047;-77
2023/12/05 10:01:55;;;;;;;11.87;6.30;;;;;;;2.80;69.69;100050.06;6366378;27;20058;-77
2023/12/05 10:05:02;;;;;;;16.05;6.95;;;;;;;2.97;70.38;100047.03;6372368;27;20050;-77
2023/12/05 10:08:06;;;;;;;9.55;5.30;;;;;;;3.03;68.98;100044.25;6380025;27;20413;-77
2023/12/05 10:11:08;;;;;;;12.95;6.88;;;;;;;3.00;69.25;100034.88;6374843;27;20073;-77
2023/12/05 10:14:11;;;;;;;;;;;;;;;2.96;69.19;100033.28;6356126;27;20142;-77
2023/12/05 10:17:14;;;;;;;9.50;4.82;;;;;;;2.95;69.21;100028.19;6346994;28;19947;-77
2023/12/05 10:20:15;;;;;;;10.77;5.93;;;;;;;2.89;69.94;100030.94;6359041;27;20039;-75
2023/12/05 10:23:17;;;;;;;11.73;5.82;;;;;;;2.83;69.85;100030.22;6372302;27;20410;-75
2023/12/05 10:26:18;;;;;;;9.02;4.68;;;;;;;3.04;70.40;100027.88;6370569;27;20447;-75
2023/12/05 10:29:36;;;;;;;9.32;5.78;;;;;;;2.97;69.52;100027.25;6369700;27;20043;-77
2023/12/05 10:32:38;;;;;;;11.07;5.30;;;;;;;3.08;69.35;100034.63;6346515;28;20059;-75
2023/12/05 10:35:41;;;;;;;12.68;6.15;;;;;;;3.13;69.17;100016.44;6351298;28;20054;-75
2023/12/05 10:38:42;;;;;;;;;;;;;;;3.20;68.98;100028.28;6368508;27;20499;-77
2023/12/05 10:41:45;;;;;;;19.83;6.32;;;;;;;3.23;68.67;100026.44;6378768;27;19967;-77
2023/12/05 10:44:47;;;;;;;11.50;6.15;;;;;;;3.22;68.89;100027.31;6375913;27;20089;-77
2023/12/05 10:47:48;;;;;;;10.50;5.43;;;;;;;3.20;68.61;100023.94;6376542;27;20418;-78
2023/12/05 10:50:53;;;;;;;9.65;5.28;;;;;;;3.09;68.77;100017.44;6376469;27;20057;-77
2023/12/05 10:53:56;;;;;;;12.30;6.30;;;;;;;2.98;70.07;100018.59;6376269;27;20055;-75
2023/12/05 10:56:59;;;;;;;10.85;5.47;;;;;;;3.09;70.03;100018.28;6377042;27;20089;-75
2023/12/05 11:00:03;;;;;;;13.25;6.13;;;;;;;3.08;70.21;100026.06;6368678;27;20047;-77
2023/12/05 11:03:04;;;;;;;25.05;10.18;;;;;;;3.08;70.77;100019.16;6394340;27;20082;-75
2023/12/05 11:06:07;;;;;;;22.95;10.68;;;;;;;3.13;70.87;100021.59;6401278;27;20050;-77
2023/12/05 11:09:09;;;;;;;23.77;9.90;;;;;;;3.01;70.79;100022.84;6377710;27;20047;-77
2023/12/05 11:12:10;;;;;;;13.65;6.60;;;;;;;3.10;71.25;100013.97;6379166;27;20050;-77
2023/12/05 11:15:15;;;;;;;11.25;7.22;;;;;;;3.17;71.22;100013.75;6401272;27;20565;-77
2023/12/05 11:18:35;;;;;;;11.43;6.60;;;;;;;3.22;71.29;100013.59;6383054;27;20043;-76
2023/12/05 11:22:11;;;;;;;11.30;6.50;;;;;;;3.29;70.88;100009.06;6376224;27;20126;-76
2023/12/05 11:25:41;;;;;;;10.63;6.13;;;;;;;3.27;71.12;100019.44;6399007;27;20047;-74
2023/12/05 11:28:44;;;;;;;14.38;6.63;;;;;;;3.19;71.20;100013.69;6389742;27;20487;-74
2023/12/05 11:32:12;;;;;;;33.35;10.23;;;;;;;3.31;71.29;100007.28;6402358;27;20072;-74
2023/12/05 11:35:19;;;;;;;17.55;7.65;;;;;;;3.32;71.75;100009.00;6401697;27;20051;-74
2023/12/05 11:38:22;;;;;;;70.53;24.38;;;;;;;3.36;71.59;100005.44;6401582;27;20551;-76
2023/12/05 11:41:24;;;;;;;41.97;16.55;;;;;;;3.26;71.82;100001.47;6401690;27;20057;-76
2023/12/05 11:44:26;;;;;;;32.45;14.55;;;;;;;3.39;71.10;99995.00;6401696;27;20046;-74
2023/12/05 11:47:28;;;;;;;23.35;10.55;;;;;;;3.37;71.12;100002.78;6401535;27;20380;-77
2023/12/05 11:50:42;;;;;;;19.13;8.27;;;;;;;3.43;70.62;99994.84;6399891;27;20053;-76
2023/12/05 11:53:43;;;;;;;12.25;6.35;;;;;;;3.31;69.97;99991.81;6399858;27;20062;-76
2023/12/05 11:56:46;;;;;;;10.88;6.20;;;;;;;3.31;70.14;99999.56;6400229;27;20099;-76
2023/12/05 11:59:50;;;;;;;9.63;5.47;;;;;;;3.32;70.20;99998.69;6378871;27;20035;-76
2023/12/05 12:02:57;;;;;;;15.07;6.68;;;;;;;3.41;69.16;99985.47;6358544;27;20048;-76
2023/12/05 12:06:02;;;;;;;13.82;8.13;;;;;;;3.52;69.70;99992.84;6350307;28;20051;-75
2023/12/05 12:09:02;;;;;;;14.15;7.15;;;;;;;3.63;68.84;99983.03;6348516;28;20488;-76
2023/12/05 12:12:07;;;;;;;13.45;7.25;;;;;;;3.69;68.37;99982.00;6359860;27;20058;-76
2023/12/05 12:15:08;;;;;;;12.65;7.65;;;;;;;3.70;68.39;99984.50;6375236;27;20063;-76
2023/12/05 12:18:09;;;;;;;15.45;9.05;;;;;;;3.69;68.54;99980.25;6375297;27;20406;-76
2023/12/05 12:21:10;;;;;;;14.48;8.25;;;;;;;3.70;68.42;99971.59;6367541;27;20414;-75
2023/12/05 12:24:37;;;;;;;15.82;7.97;;;;;;;3.71;67.81;99962.97;6368240;27;20087;-74
2023/12/05 12:27:41;;;;;;;14.30;7.55;;;;;;;3.77;67.94;99964.50;6345260;28;20533;-74
2023/12/05 12:30:41;;;;;;;15.40;6.97;;;;;;;3.78;67.31;99961.84;6358570;27;20040;-74
2023/12/05 12:33:46;;;;;;;13.45;7.13;;;;;;;3.80;67.65;99965.22;6367381;27;20525;-76
2023/12/05 12:36:48;;;;;;;16.40;8.32;;;;;;;3.95;67.29;99960.44;6360356;27;20047;-76
2023/12/05 12:39:50;;;;;;;15.85;8.02;;;;;;;3.98;67.43;99968.91;6362000;27;20506;-76
2023/12/05 12:42:54;;;;;;;14.15;7.68;;;;;;;3.90;67.96;99968.34;6365180;27;20059;-76
2023/12/05 12:45:59;;;;;;;19.33;9.20;;;;;;;3.77;66.95;99960.19;6373261;27;20047;-76
2023/12/05 12:49:02;;;;;;;21.17;9.80;;;;;;;3.81;67.60;99955.78;6367960;27;20043;-77
2023/12/05 12:52:04;;;;;;;24.50;9.52;;;;;;;3.84;67.47;99960.81;6351429;27;20049;-76
2023/12/05 12:55:06;;;;;;;13.47;7.30;;;;;;;3.83;67.98;99959.13;6348612;28;20404;-76
2023/12/05 12:58:09;;;;;;;;;;;;;;;3.84;67.83;99963.41;6348920;28;20423;-76
2023/12/05 13:01:13;;;;;;;12.85;6.95;;;;;;;3.83;67.98;99966.88;6352545;27;19919;-76
2023/12/05 13:04:14;;;;;;;14.65;8.05;;;;;;;3.78;68.14;99961.84;6353672;27;20051;-74
2023/12/05 13:07:25;;;;;;;24.10;10.48;;;;;;;3.82;67.97;99960.03;6347441;28;20055;-74
2023/12/05 13:10:28;;;;;;;45.90;16.63;;;;;;;3.84;67.61;99958.22;6347958;27;20047;-74
2023/12/05 13:13:31;;;;;;;20.63;8.35;;;;;;;3.90;68.19;99964.94;6359276;27;20051;-76
2023/12/05 13:16:32;;;;;;;29.20;14.07;;;;;;;3.88;67.85;99957.22;6359353;27;20078;-76
2023/12/05 13:19:35;;;;;;;24.05;13.15;;;;;;;3.81;68.66;99955.78;6347065;28;20096;-76
2023/12/05 13:22:39;;;;;;;20.75;10.93;;;;;;;3.76;68.04;99958.50;6352190;27;20491;-74
2023/12/05 13:25:39;;;;;;;16.60;10.10;;;;;;;3.78;68.77;99961.84;6379339;27;20086;-74
2023/12/05 13:28:41;;;;;;;18.80;9.85;;;;;;;3.73;68.77;99963.78;6384634;27;20050;-74
2023/12/05 13:31:42;;;;;;;24.80;10.47;;;;;;;3.72;68.83;99961.22;6399125;27;20108;-74
2023/12/05 13:34:43;;;;;;;19.20;10.77;;;;;;;3.72;69.21;99964.66;6379844;27;20089;-76
2023/12/05 13:37:44;;;;;;;17.52;9.48;;;;;;;3.77;68.79;99965.34;6355032;27;20111;-74
2023/12/05 13:40:45;;;;;;;23.80;8.63;;;;;;;3.78;68.70;99972.19;6357773;27;20094;-76
2023/12/05 13:43:46;;;;;;;15.75;8.38;;;;;;;3.76;69.01;99973.13;6346349;28;20046;-74
2023/12/05 13:46:49;;;;;;;14.13;7.88;;;;;;;3.65;69.23;99972.66;6347107;27;20483;-74
2023/12/05 13:49:52;;;;;;;18.42;7.03;;;;;;;3.71;68.88;99980.22;6352800;27;20112;-76
2023/12/05 13:52:53;;;;;;;;;;;;;;;3.72;68.97;99987.88;6358582;27;20535;-74
2023/12/05 13:55:56;;;;;;;13.68;7.78;;;;;;;3.73;68.78;99991.31;6363870;27;19987;-74
2023/12/05 13:58:58;;;;;;;17.55;8.10;;;;;;;3.70;68.75;99989.66;6387737;27;20043;-75
2023/12/05 14:02:02;;;;;;;18.75;8.65;;;;;;;3.68;69.37;99998.34;6371497;27;20051;-76
2023/12/05 14:05:05;;;;;;;37.30;16.48;;;;;;;3.68;69.13;99990.63;6391734;27;20043;-74
2023/12/05 14:08:06;;;;;;;41.72;15.00;;;;;;;3.63;68.96;99995.94;6396770;27;20050;-74